Time;durP1;ratioP1;P1;durP2;ratioP2;P2;SDS_P1;SDS_P2;PMS_P1;PMS_P2;Temp;Humidity;BMP_temperature;BMP_pressure;BME280_temperature;BME280_humidity;BME280_pressure;Samples;Min_cycle;Max_cycle;Signal;HPM_P1;HPM_P2
2022/06/23 00:00:40;;;;;;;14.82;8.77;;;16.20;99.90;;;;;;5051681;28;20452;-45
2022/06/23 00:03:06;;;;;;;13.10;8.45;;;16.10;99.90;;;;;;5060638;28;20044;-45
2022/06/23 00:05:40;;;;;;;12.77;7.65;;;16.10;99.90;;;;;;5062905;28;20458;-44
2022/06/23 00:08:11;;;;;;;14.85;6.75;;;16.10;99.90;;;;;;5070984;28;20036;-44
2022/06/23 00:10:40;;;;;;;11.85;6.25;;;16.00;99.90;;;;;;5070392;28;20079;-44
2022/06/23 00:13:37;;;;;;;7.85;5.35;;;16.00;99.90;;;;;;5070915;28;20452;-44
2022/06/23 00:16:04;;;;;;;6.18;4.65;;;16.00;99.90;;;;;;5051912;28;20158;-44
2022/06/23 00:18:36;;;;;;;5.82;5.03;;;16.00;99.90;;;;;;5051028;28;20079;-47
2022/06/23 00:21:07;;;;;;;7.47;4.70;;;15.90;99.90;;;;;;5058603;28;20276;-44
2022/06/23 00:23:39;;;;;;;5.13;4.47;;;15.90;99.90;;;;;;5070779;28;20055;-44
2022/06/23 00:26:16;;;;;;;5.63;3.80;;;15.80;99.90;;;;;;5062914;28;20075;-44
2022/06/23 00:28:49;;;;;;;7.25;4.95;;;15.80;99.90;;;;;;5063625;28;20076;-44
2022/06/23 00:31:39;;;;;;;9.82;4.60;;;15.80;99.90;;;;;;5071309;28;20424;-46
2022/06/23 00:34:27;;;;;;;5.50;4.10;;;15.80;99.90;;;;;;5069514;28;20044;-43
2022/06/23 00:37:13;;;;;;;5.80;4.88;;;15.70;99.90;;;;;;5058053;28;20044;-44
2022/06/23 00:39:49;;;;;;;7.10;4.32;;;15.70;99.90;;;;;;5051037;28;20037;-44
2022/06/23 00:42:23;;;;;;;9.80;4.82;;;15.70;99.90;;;;;;5051163;28;20037;-44
2022/06/23 00:44:56;;;;;;;5.97;5.00;;;15.70;99.90;;;;;;5048761;28;20417;-44
2022/06/23 00:47:29;;;;;;;6.75;3.95;;;15.70;99.90;;;;;;5051693;28;20072;-44
2022/06/23 00:50:02;;;;;;;5.13;4.65;;;15.60;99.90;;;;;;5050735;28;20486;-44
2022/06/23 00:52:38;;;;;;;14.27;4.80;;;15.70;99.90;;;;;;5050933;28;20106;-44
2022/06/23 00:55:13;;;;;;;8.15;4.85;;;15.60;99.90;;;;;;5050024;28;20063;-44
2022/06/23 00:57:48;;;;;;;7.13;5.53;;;15.60;99.90;;;;;;5055267;28;20040;-45
2022/06/23 01:00:43;;;;;;;5.50;5.00;;;15.60;99.90;;;;;;5050541;28;20176;-44
2022/06/23 01:03:24;;;;;;;4.65;4.25;;;15.50;99.90;;;;;;5040991;28;20048;-44
2022/06/23 01:06:10;;;;;;;13.90;4.35;;;15.50;99.90;;;;;;5050496;28;20437;-44
2022/06/23 01:08:45;;;;;;;10.38;5.43;;;15.50;99.90;;;;;;5051575;28;20052;-44
2022/06/23 01:11:28;;;;;;;9.10;4.80;;;15.50;99.90;;;;;;5058584;28;20040;-44
2022/06/23 01:14:27;;;;;;;9.77;6.70;;;15.40;99.90;;;;;;5068310;28;20063;-44
2022/06/23 01:17:01;;;;;;;16.23;8.88;;;15.40;99.90;;;;;;5061571;28;20120;-44
2022/06/23 01:20:01;;;;;;;15.65;9.20;;;15.40;99.90;;;;;;5067553;28;20085;-44
2022/06/23 01:22:50;;;;;;;15.65;8.70;;;15.40;99.90;;;;;;5070883;28;20359;-45
2022/06/23 01:25:15;;;;;;;14.02;8.65;;;15.30;99.90;;;;;;5068848;28;20051;-44
2022/06/23 01:28:09;;;;;;;11.13;7.80;;;15.30;99.90;;;;;;5069403;28;20469;-44
2022/06/23 01:30:46;;;;;;;15.70;8.18;;;15.30;99.90;;;;;;5058399;28;20321;-46
2022/06/23 01:33:14;;;;;;;13.80;7.32;;;15.30;99.90;;;;;;5049948;28;20498;-44
2022/06/23 01:36:01;;;;;;;12.30;7.38;;;15.20;99.90;;;;;;5049719;28;20052;-44
2022/06/23 01:38:59;;;;;;;8.65;6.05;;;15.20;99.90;;;;;;5050168;28;20052;-45
2022/06/23 01:41:28;;;;;;;;;;;15.20;99.90;;;;;;5068678;28;20040;-46
2022/06/23 01:44:04;;;;;;;7.13;5.10;;;15.20;99.90;;;;;;5069584;28;19949;-44
2022/06/23 01:46:35;;;;;;;7.20;5.82;;;15.20;99.90;;;;;;5064052;28;20410;-43
2022/06/23 01:49:04;;;;;;;8.75;6.18;;;15.10;99.90;;;;;;5052900;28;20060;-44
2022/06/23 01:51:41;;;;;;;9.70;6.00;;;15.10;99.90;;;;;;5064598;28;20044;-44
2022/06/23 01:54:11;;;;;;;7.15;5.55;;;15.10;99.90;;;;;;5049357;28;20039;-45
2022/06/23 01:56:44;;;;;;;8.98;5.38;;;15.00;99.90;;;;;;5048329;28;20039;-44
2022/06/23 01:59:32;;;;;;;13.10;5.72;;;15.00;99.90;;;;;;5050307;28;20041;-43
2022/06/23 02:02:06;;;;;;;;;;;15.00;99.90;;;;;;5050361;28;20040;-45
2022/06/23 02:04:58;;;;;;;5.10;4.65;;;15.00;99.90;;;;;;5062281;28;19923;-44
2022/06/23 02:07:39;;;;;;;6.05;5.38;;;14.90;99.90;;;;;;5068906;28;20438;-45
2022/06/23 02:10:32;;;;;;;6.35;5.72;;;14.90;99.90;;;;;;5067969;28;20041;-44
2022/06/23 02:13:14;;;;;;;6.20;5.70;;;14.90;99.90;;;;;;5068965;28;20041;-44
2022/06/23 02:15:57;;;;;;;6.65;5.68;;;14.90;99.90;;;;;;5067979;28;20028;-45
2022/06/23 02:18:27;;;;;;;7.78;6.07;;;14.90;99.90;;;;;;5065797;28;20048;-44
2022/06/23 02:21:21;;;;;;;7.63;6.13;;;14.90;99.90;;;;;;5056102;28;20072;-44
2022/06/23 02:24:14;;;;;;;10.77;6.18;;;14.90;99.90;;;;;;5066732;28;20214;-44
2022/06/23 02:27:17;;;;;;;9.00;5.72;;;14.90;99.90;;;;;;5069260;28;20117;-44
2022/06/23 02:30:07;;;;;;;12.00;6.10;;;14.90;99.90;;;;;;5063207;28;20132;-44
2022/06/23 02:32:54;;;;;;;8.38;6.32;;;14.80;99.90;;;;;;5030647;28;20052;-44
2022/06/23 02:35:45;;;;;;;7.10;5.78;;;14.80;99.90;;;;;;5048918;28;20048;-44
2022/06/23 02:38:23;;;;;;;9.10;5.88;;;14.80;99.90;;;;;;5049636;28;20103;-43
2022/06/23 02:40:56;;;;;;;7.35;6.60;;;14.70;99.90;;;;;;5048699;28;20048;-44
2022/06/23 02:43:28;;;;;;;8.85;6.05;;;14.70;99.90;;;;;;5068958;28;20044;-44
2022/06/23 02:46:15;;;;;;;8.15;6.30;;;14.70;99.90;;;;;;5060276;28;20533;-43
2022/06/23 02:49:03;;;;;;;7.40;6.40;;;14.70;99.90;;;;;;5063113;28;20048;-44
2022/06/23 02:51:51;;;;;;;8.27;5.97;;;14.70;99.90;;;;;;5067391;28;20064;-44
2022/06/23 02:54:28;;;;;;;6.68;5.80;;;14.70;99.90;;;;;;5052248;28;20075;-44
2022/06/23 02:56:54;;;;;;;9.15;6.57;;;14.60;99.90;;;;;;5051465;28;20315;-45
2022/06/23 02:59:40;;;;;;;5.97;5.37;;;14.60;99.90;;;;;;5055202;28;20047;-44
2022/06/23 03:02:36;;;;;;;8.07;6.13;;;14.60;99.90;;;;;;5069011;28;20049;-44
2022/06/23 03:05:11;;;;;;;8.18;6.25;;;14.60;99.90;;;;;;5067936;28;20044;-44
2022/06/23 03:07:42;;;;;;;7.18;6.50;;;14.60;99.90;;;;;;5072843;28;20041;-44
2022/06/23 03:10:20;;;;;;;8.82;6.45;;;14.60;99.90;;;;;;5066050;28;20068;-44
2022/06/23 03:13:06;;;;;;;7.05;6.25;;;14.50;99.90;;;;;;5051955;28;20057;-44
2022/06/23 03:15:47;;;;;;;8.18;5.78;;;14.50;99.90;;;;;;5051927;28;20045;-46
2022/06/23 03:18:21;;;;;;;7.38;6.63;;;14.50;99.90;;;;;;5051513;28;20398;-44
2022/06/23 03:20:58;;;;;;;6.97;6.22;;;14.50;99.90;;;;;;5066986;28;20166;-44
2022/06/23 03:23:51;;;;;;;8.75;7.03;;;14.40;99.90;;;;;;5066419;28;20093;-44
2022/06/23 03:26:29;;;;;;;9.25;6.95;;;14.40;99.90;;;;;;5051592;28;20056;-44
2022/06/23 03:29:04;;;;;;;7.63;6.72;;;14.30;99.90;;;;;;5052738;28;20115;-44
2022/06/23 03:31:36;;;;;;;7.95;6.63;;;14.30;99.90;;;;;;5052495;28;20041;-45
2022/06/23 03:34:16;;;;;;;8.68;6.88;;;14.40;99.90;;;;;;5058645;28;20052;-44
2022/06/23 03:36:56;;;;;;;9.77;7.03;;;14.40;99.90;;;;;;5072162;28;20056;-44
2022/06/23 03:42:33;;;;;;;8.47;6.50;;;14.30;99.90;;;;;;5072099;28;20459;-44
2022/06/23 03:45:04;;;;;;;9.00;7.00;;;14.30;99.90;;;;;;5057402;28;20036;-44
2022/06/23 03:47:42;;;;;;;8.55;5.97;;;14.30;99.90;;;;;;5054587;28;20074;-47
2022/06/23 03:50:23;;;;;;;7.53;6.80;;;14.30;99.90;;;;;;5070772;28;20051;-44
2022/06/23 03:52:55;;;;;;;7.20;6.22;;;14.30;99.90;;;;;;5068506;28;20059;-44
2022/06/23 03:55:26;;;;;;;9.85;7.85;;;14.30;99.90;;;;;;5052435;28;20044;-44
2022/06/23 03:57:58;;;;;;;8.43;6.93;;;14.30;99.90;;;;;;5051702;28;20043;-43
2022/06/23 04:00:37;;;;;;;10.50;7.30;;;14.30;99.90;;;;;;5051942;28;20094;-43
2022/06/23 04:03:08;;;;;;;12.23;7.63;;;14.30;99.90;;;;;;5051100;28;20639;-44
2022/06/23 04:06:09;;;;;;;11.63;8.18;;;14.30;99.90;;;;;;5052207;28;20040;-45
2022/06/23 04:08:44;;;;;;;14.52;9.35;;;14.30;99.90;;;;;;5051703;28;20069;-44
2022/06/23 04:14:05;;;;;;;17.10;10.82;;;14.30;99.90;;;;;;5070410;28;20509;-44
2022/06/23 04:16:32;;;;;;;17.23;11.95;;;14.30;99.90;;;;;;5069470;28;20040;-44
2022/06/23 04:18:58;;;;;;;15.45;11.60;;;14.30;99.90;;;;;;5071588;28;20040;-44
2022/06/23 04:21:28;;;;;;;36.97;11.98;;;14.30;99.90;;;;;;5071454;28;20470;-44
2022/06/23 04:23:57;;;;;;;14.70;12.48;;;14.40;99.90;;;;;;5070015;28;20485;-44
2022/06/23 04:26:42;;;;;;;20.33;11.77;;;14.40;99.90;;;;;;5053605;28;20045;-44
2022/06/23 04:29:16;;;;;;;13.38;9.73;;;14.40;99.90;;;;;;5055476;28;20116;-44
2022/06/23 04:31:51;;;;;;;11.85;10.05;;;14.40;99.90;;;;;;5050931;28;20098;-44
2022/06/23 04:34:22;;;;;;;14.20;11.25;;;14.40;99.90;;;;;;5050969;28;20047;-44
2022/06/23 04:36:48;;;;;;;20.23;10.30;;;14.50;99.90;;;;;;5051399;28;20076;-43
2022/06/23 04:39:37;;;;;;;13.50;10.35;;;14.50;99.90;;;;;;5071226;28;20087;-44
2022/06/23 04:42:15;;;;;;;10.90;9.02;;;14.50;99.90;;;;;;5049761;28;20052;-44
2022/06/23 04:44:46;;;;;;;13.55;10.13;;;14.50;99.90;;;;;;5048820;28;20140;-44
2022/06/23 04:47:17;;;;;;;16.30;9.60;;;14.50;99.90;;;;;;5059959;28;20107;-43
2022/06/23 04:49:50;;;;;;;13.98;9.63;;;14.50;99.90;;;;;;5067043;28;20033;-44
2022/06/23 04:52:22;;;;;;;12.80;10.23;;;14.50;99.90;;;;;;5050945;28;20052;-44
2022/06/23 04:54:57;;;;;;;12.48;9.57;;;14.50;99.90;;;;;;5049887;28;20082;-44
2022/06/23 04:57:34;;;;;;;13.05;10.48;;;14.50;99.90;;;;;;5057881;28;20051;-44
2022/06/23 05:00:03;;;;;;;13.48;10.35;;;14.60;99.90;;;;;;5070482;28;20513;-44
2022/06/23 05:02:36;;;;;;;10.40;9.02;;;14.60;99.90;;;;;;5059398;28;20045;-43
2022/06/23 05:05:18;;;;;;;11.43;10.18;;;14.70;99.90;;;;;;5049911;28;20509;-44
2022/06/23 05:08:06;;;;;;;14.38;10.93;;;14.70;99.90;;;;;;5058275;28;20488;-43
2022/06/23 05:10:48;;;;;;;15.10;10.65;;;14.80;99.90;;;;;;5071047;28;20041;-44
2022/06/23 05:13:25;;;;;;;13.27;11.95;;;14.90;99.90;;;;;;5070523;28;20050;-44
2022/06/23 05:16:05;;;;;;;15.55;11.70;;;15.00;99.90;;;;;;5069187;28;20423;-43
2022/06/23 05:18:34;;;;;;;20.35;12.05;;;15.00;99.90;;;;;;5068796;28;20080;-44
2022/06/23 05:21:09;;;;;;;13.90;11.63;;;15.10;99.90;;;;;;5056382;28;20041;-44
2022/06/23 05:23:46;;;;;;;13.82;11.07;;;15.20;99.90;;;;;;5067943;28;20044;-43
2022/06/23 05:26:29;;;;;;;15.95;12.18;;;15.30;99.90;;;;;;5069463;28;20036;-45
2022/06/23 05:29:18;;;;;;;17.80;11.93;;;15.40;99.90;;;;;;5068591;28;20042;-44
2022/06/23 05:31:48;;;;;;;13.65;11.40;;;15.50;99.90;;;;;;5070323;28;20068;-45
2022/06/23 05:34:20;;;;;;;20.75;11.85;;;15.60;99.90;;;;;;5069098;28;20474;-45
2022/06/23 05:37:02;;;;;;;12.88;11.25;;;15.70;99.90;;;;;;5069745;28;20102;-44
2022/06/23 05:39:35;;;;;;;13.98;10.43;;;15.80;99.90;;;;;;5068190;28;20040;-44
2022/06/23 05:42:16;;;;;;;12.57;9.80;;;15.90;99.90;;;;;;5070288;28;20041;-44
2022/06/23 05:44:51;;;;;;;11.32;10.00;;;16.00;99.90;;;;;;5057776;28;20379;-44
2022/06/23 05:47:19;;;;;;;11.48;10.30;;;16.10;99.90;;;;;;5049326;28;20037;-44
2022/06/23 05:49:56;;;;;;;11.70;9.60;;;16.20;99.90;;;;;;5051130;28;20056;-45
2022/06/23 05:52:24;;;;;;;;;;;16.30;99.90;;;;;;5050501;28;20491;-44
2022/06/23 05:55:06;;;;;;;12.70;9.18;;;16.40;99.90;;;;;;5048681;28;20116;-44
2022/06/23 05:57:37;;;;;;;11.55;9.82;;;16.50;99.90;;;;;;5060328;28;20036;-44
2022/06/23 06:00:21;;;;;;;13.25;10.07;;;16.60;99.90;;;;;;5066700;28;20045;-44
2022/06/23 06:03:15;;;;;;;10.77;9.70;;;16.70;99.90;;;;;;5060063;28;20064;-44
2022/06/23 06:05:45;;;;;;;12.38;9.60;;;16.80;99.90;;;;;;5049303;28;20060;-44
2022/06/23 06:09:35;;;;;;;10.90;8.90;;;16.90;99.90;;;;;;5048325;28;20403;-44
2022/06/23 06:11:31;;;;;;;13.50;9.13;;;17.00;99.90;;;;;;5047088;28;20072;-44
2022/06/23 06:13:59;;;;;;;11.52;9.45;;;17.20;99.90;;;;;;5052363;28;20040;-44
2022/06/23 06:16:24;;;;;;;9.85;8.40;;;17.30;99.90;;;;;;5059531;28;20123;-44
2022/06/23 06:18:52;;;;;;;13.93;7.32;;;17.40;99.90;;;;;;5061271;28;20041;-43
2022/06/23 06:21:20;;;;;;;11.05;7.60;;;17.50;99.90;;;;;;5080290;28;20040;-44
2022/06/23 06:24:01;;;;;;;9.60;8.02;;;17.60;99.90;;;;;;5056864;28;20076;-45
2022/06/23 06:26:31;;;;;;;9.60;7.10;;;17.70;99.90;;;;;;5049061;28;20036;-44
2022/06/23 06:29:14;;;;;;;10.18;7.50;;;17.80;99.90;;;;;;5052308;28;20076;-45
2022/06/23 06:31:58;;;;;;;9.35;7.47;;;17.90;99.90;;;;;;5054486;28;20061;-44
2022/06/23 06:34:33;;;;;;;13.02;7.03;;;18.10;99.90;;;;;;5060902;28;20047;-44
2022/06/23 06:36:59;;;;;;;7.63;5.88;;;18.10;99.90;;;;;;5063180;28;20555;-44
2022/06/23 06:39:36;;;;;;;12.63;6.65;;;18.30;99.90;;;;;;5072692;28;20044;-44
2022/06/23 06:42:14;;;;;;;12.02;7.10;;;18.40;99.90;;;;;;5071331;28;20068;-44
2022/06/23 06:44:47;;;;;;;10.93;6.28;;;18.50;99.90;;;;;;5065731;28;20043;-44
2022/06/23 06:47:18;;;;;;;7.55;6.57;;;18.60;99.90;;;;;;5064596;28;20025;-44
2022/06/23 06:49:45;;;;;;;7.65;6.22;;;18.70;99.90;;;;;;5059892;28;20465;-44
2022/06/23 06:52:12;;;;;;;11.55;6.13;;;18.80;99.90;;;;;;5063388;28;20043;-44
2022/06/23 06:55:02;;;;;;;10.65;6.70;;;18.90;99.90;;;;;;5055141;28;20463;-44
2022/06/23 06:57:36;;;;;;;6.38;5.78;;;19.00;99.90;;;;;;5067817;28;20041;-45
2022/06/23 07:00:30;;;;;;;9.25;5.60;;;19.10;99.90;;;;;;5071428;28;20040;-44
2022/06/23 07:02:59;;;;;;;8.18;5.75;;;19.20;99.90;;;;;;5070952;28;20386;-44
2022/06/23 07:05:43;;;;;;;8.00;5.82;;;19.30;99.90;;;;;;5071376;28;20072;-44
2022/06/23 07:08:21;;;;;;;5.63;4.90;;;19.30;99.90;;;;;;5052836;28;20044;-45
2022/06/23 07:10:59;;;;;;;6.18;5.50;;;19.50;99.90;;;;;;5055493;28;20141;-44
2022/06/23 07:13:36;;;;;;;9.73;5.28;;;19.60;99.90;;;;;;5059827;28;20520;-44
2022/06/23 07:16:18;;;;;;;7.85;5.18;;;19.60;99.90;;;;;;5059911;28;20045;-43
2022/06/23 07:18:55;;;;;;;6.47;4.70;;;19.70;99.90;;;;;;5054179;28;20048;-43
2022/06/23 07:21:44;;;;;;;6.47;4.70;;;19.90;99.90;;;;;;5057559;28;20409;-44
2022/06/23 07:24:20;;;;;;;7.15;5.88;;;19.90;99.90;;;;;;5019761;28;20067;-45
2022/06/23 07:26:58;;;;;;;19.98;6.00;;;20.10;99.90;;;;;;5059243;28;20036;-45
2022/06/23 07:29:37;;;;;;;7.75;4.65;;;20.20;99.90;;;;;;5057891;28;20558;-45
2022/06/23 07:32:10;;;;;;;4.65;4.22;;;20.30;99.90;;;;;;5065425;28;20097;-45
2022/06/23 07:34:40;;;;;;;5.85;3.70;;;20.40;99.90;;;;;;5055243;28;20051;-44
2022/06/23 07:37:28;;;;;;;5.13;4.55;;;20.50;99.90;;;;;;5057253;28;20106;-44
2022/06/23 07:39:59;;;;;;;;;;;20.60;99.90;;;;;;5058167;28;20052;-44
2022/06/23 07:42:54;;;;;;;6.72;3.92;;;20.80;99.90;;;;;;5052479;28;20376;-44
2022/06/23 07:45:31;;;;;;;42.05;6.00;;;20.80;99.90;;;;;;5058056;28;20087;-45
2022/06/23 07:47:57;;;;;;;6.55;3.90;;;21.00;99.90;;;;;;5060583;28;20036;-44
2022/06/23 07:50:23;;;;;;;7.47;2.95;;;21.00;99.60;;;;;;5066848;28;20041;-44
2022/06/23 07:52:49;;;;;;;;;;;21.10;99.50;;;;;;5063009;28;20394;-45
2022/06/23 07:55:24;;;;;;;5.45;3.45;;;21.20;99.50;;;;;;5061537;28;19924;-44
2022/06/23 07:57:50;;;;;;;4.25;2.75;;;21.30;99.10;;;;;;5060262;28;20048;-44
2022/06/23 08:00:16;;;;;;;;;;;21.40;98.80;;;;;;5059540;28;20398;-44
2022/06/23 08:03:09;;;;;;;5.65;3.75;;;21.60;98.80;;;;;;5052659;28;19924;-44
2022/06/23 08:05:39;;;;;;;4.72;3.20;;;21.70;98.20;;;;;;5053694;28;20048;-44
2022/06/23 08:08:09;;;;;;;7.55;3.00;;;21.80;98.30;;;;;;5052348;28;20048;-44
2022/06/23 08:10:36;;;;;;;3.72;2.85;;;21.90;98.20;;;;;;5055193;28;20037;-45
2022/06/23 08:13:09;;;;;;;5.13;3.30;;;22.00;97.80;;;;;;5057474;28;20048;-45
2022/06/23 08:19:05;;;;;;;4.95;2.80;;;22.20;97.10;;;;;;5066619;28;20040;-44
2022/06/23 08:21:35;;;;;;;6.18;3.70;;;22.30;96.80;;;;;;5062980;28;20397;-44
2022/06/23 08:24:15;;;;;;;7.03;2.78;;;22.40;97.60;;;;;;5058506;28;20033;-44
2022/06/23 08:26:46;;;;;;;11.18;3.33;;;22.50;96.90;;;;;;5053446;28;20076;-45
2022/06/23 08:29:15;;;;;;;4.43;3.03;;;22.60;96.80;;;;;;5063850;28;20041;-44
2022/06/23 08:31:42;;;;;;;8.05;3.28;;;22.70;96.50;;;;;;5070554;28;20040;-44
2022/06/23 08:34:08;;;;;;;5.13;3.05;;;22.80;96.40;;;;;;5057511;28;20478;-44
2022/06/23 08:36:43;;;;;;;8.10;2.80;;;22.90;95.90;;;;;;5050449;28;20116;-44
2022/06/23 08:39:13;;;;;;;2.90;2.60;;;23.00;95.90;;;;;;5061602;28;20066;-45
2022/06/23 08:41:44;;;;;;;8.60;3.55;;;23.20;94.90;;;;;;5055581;28;20111;-45
2022/06/23 08:44:37;;;;;;;4.40;2.47;;;23.30;95.00;;;;;;5052266;28;20040;-46
2022/06/23 08:47:37;;;;;;;9.48;2.90;;;23.40;93.80;;;;;;5051037;28;20056;-44
2022/06/23 08:50:35;;;;;;;5.60;2.60;;;23.50;92.20;;;;;;5054259;28;20044;-44
2022/06/23 08:53:19;;;;;;;7.53;3.17;;;23.60;93.80;;;;;;5065957;28;20427;-45
2022/06/23 08:56:11;;;;;;;4.45;2.03;;;23.70;93.60;;;;;;5062873;28;20102;-45
2022/06/23 08:59:08;;;;;;;32.03;3.35;;;23.80;92.20;;;;;;5054334;28;20114;-44
2022/06/23 09:01:57;;;;;;;6.60;2.00;;;23.90;91.90;;;;;;5053002;28;20083;-45
2022/06/23 09:04:53;;;;;;;6.80;2.28;;;24.00;91.20;;;;;;5050766;28;20112;-47
2022/06/23 09:07:40;;;;;;;6.13;2.40;;;24.20;91.30;;;;;;5055719;28;20052;-45
2022/06/23 09:10:17;;;;;;;;;;;24.30;90.70;;;;;;5062147;28;20045;-44
2022/06/23 09:13:10;;;;;;;3.00;1.90;;;24.40;91.50;;;;;;5063022;28;19971;-46
2022/06/23 09:16:00;;;;;;;3.47;1.75;;;24.50;91.30;;;;;;5059146;28;20506;-45
2022/06/23 09:18:56;;;;;;;5.75;2.55;;;24.60;90.00;;;;;;5067960;28;20412;-45
2022/06/23 09:21:28;;;;;;;4.22;2.00;;;24.70;89.10;;;;;;5060467;28;20044;-46
2022/06/23 09:24:23;;;;;;;7.65;2.30;;;24.70;90.30;;;;;;5054298;28;20028;-45
2022/06/23 09:26:59;;;;;;;7.10;2.80;;;24.80;90.20;;;;;;5054859;28;20033;-46
2022/06/23 09:29:48;;;;;;;7.82;2.22;;;24.90;89.00;;;;;;5060385;28;20306;-44
2022/06/23 09:32:24;;;;;;;4.20;2.40;;;25.00;89.40;;;;;;5035938;28;20033;-47
2022/06/23 09:35:34;;;;;;;40.20;3.63;;;25.10;88.30;;;;;;5057459;28;20033;-47
2022/06/23 09:38:27;;;;;;;8.43;2.42;;;25.10;88.20;;;;;;5067433;28;20079;-44
2022/06/23 09:41:19;;;;;;;14.68;3.42;;;25.20;90.30;;;;;;5055540;28;20087;-46
2022/06/23 09:44:16;;;;;;;11.23;2.47;;;25.30;88.30;;;;;;5054384;28;20032;-45
2022/06/23 09:47:09;;;;;;;11.63;3.20;;;25.40;88.80;;;;;;5054540;28;20040;-45
2022/06/23 09:49:55;;;;;;;7.10;2.03;;;25.40;85.80;;;;;;5068180;28;20536;-44
2022/06/23 09:52:44;;;;;;;2.50;1.73;;;25.50;86.30;;;;;;5068242;28;20489;-44
2022/06/23 09:55:31;;;;;;;4.47;1.90;;;25.50;85.30;;;;;;5058549;28;20116;-44
2022/06/23 09:58:26;;;;;;;3.53;2.20;;;25.70;86.00;;;;;;5055410;28;20047;-45
2022/06/23 10:01:22;;;;;;;3.05;1.60;;;25.70;84.90;;;;;;5069891;28;20115;-45
2022/06/23 10:04:00;;;;;;;5.93;2.00;;;25.80;86.30;;;;;;5068318;28;20111;-45
2022/06/23 10:06:50;;;;;;;4.35;1.77;;;25.80;84.60;;;;;;5056691;28;20044;-45
2022/06/23 10:09:39;;;;;;;295.55;22.58;;;25.90;82.80;;;;;;5056447;28;20051;-44
2022/06/23 10:12:34;;;;;;;2.75;1.50;;;26.00;84.80;;;;;;5030018;28;20076;-45
2022/06/23 10:15:28;;;;;;;5.20;1.48;;;26.10;84.10;;;;;;5056732;28;20072;-45
2022/06/23 10:18:24;;;;;;;2.95;1.42;;;26.20;82.10;;;;;;5063934;28;21312;-44
2022/06/23 10:21:26;;;;;;;2.97;1.63;;;26.30;82.50;;;;;;5057359;28;20490;-45
2022/06/23 10:24:08;;;;;;;2.40;1.38;;;26.40;81.60;;;;;;5056511;28;20058;-45
2022/06/23 10:26:45;;;;;;;2.67;1.55;;;26.50;80.80;;;;;;5061687;28;20410;-45
2022/06/23 10:29:48;;;;;;;4.60;1.90;;;26.50;80.70;;;;;;5061122;28;20043;-44
2022/06/23 10:32:39;;;;;;;4.60;1.88;;;26.60;79.80;;;;;;5069619;28;20082;-44
2022/06/23 10:35:28;;;;;;;19.13;2.50;;;26.70;79.80;;;;;;5052123;28;20089;-46
2022/06/23 10:38:23;;;;;;;3.75;1.40;;;26.70;80.60;;;;;;5066846;28;20072;-45
2022/06/23 10:41:14;;;;;;;6.65;1.42;;;26.80;80.40;;;;;;5069450;28;20047;-47
2022/06/23 10:44:00;;;;;;;154.68;10.80;;;26.90;79.80;;;;;;5069211;28;20037;-45
2022/06/23 10:46:49;;;;;;;6.00;1.08;;;27.00;80.70;;;;;;5054416;28;20036;-46
2022/06/23 10:49:23;;;;;;;23.15;3.20;;;27.10;76.60;;;;;;5052934;28;20108;-45
2022/06/23 10:52:10;;;;;;;12.18;1.25;;;27.20;77.00;;;;;;5052026;28;20047;-47
2022/06/23 10:55:00;;;;;;;3.83;1.23;;;27.30;79.10;;;;;;5048101;28;20047;-46
2022/06/23 10:57:49;;;;;;;2.67;1.17;;;27.30;76.90;;;;;;5048686;28;20049;-46
2022/06/23 11:00:19;;;;;;;5.95;1.00;;;27.40;75.10;;;;;;5049244;28;20040;-46
2022/06/23 11:03:22;;;;;;;5.68;1.00;;;27.40;76.40;;;;;;5048427;28;20037;-46
2022/06/23 11:06:08;;;;;;;826.47;78.50;;;27.50;76.50;;;;;;5046378;28;20068;-45
2022/06/23 11:09:01;;;;;;;195.50;13.45;;;27.70;75.50;;;;;;5049169;28;20179;-46
2022/06/23 11:11:35;;;;;;;2.67;1.00;;;27.70;72.70;;;;;;5048904;28;20052;-45
2022/06/23 11:14:25;;;;;;;261.88;18.05;;;27.80;74.00;;;;;;5050239;28;20120;-46
2022/06/23 11:17:29;;;;;;;4.95;0.77;;;27.80;72.70;;;;;;5049442;28;20096;-46
2022/06/23 11:20:32;;;;;;;2.58;0.80;;;28.00;72.00;;;;;;5050329;28;20121;-47
2022/06/23 11:23:28;;;;;;;564.08;45.10;;;28.10;70.00;;;;;;5051411;28;20131;-47
2022/06/23 11:26:21;;;;;;;1.13;0.65;;;28.20;68.40;;;;;;5046162;28;20128;-45
2022/06/23 11:29:12;;;;;;;37.50;2.78;;;28.30;67.70;;;;;;5052511;28;20044;-45
2022/06/23 11:31:56;;;;;;;2.80;0.60;;;28.30;67.10;;;;;;5052556;28;20056;-44
2022/06/23 11:34:48;;;;;;;2.72;0.68;;;28.40;66.00;;;;;;5061096;28;20049;-46
2022/06/23 11:37:23;;;;;;;6.03;0.73;;;28.50;67.10;;;;;;5061931;28;20033;-45
2022/06/23 11:40:04;;;;;;;8.57;1.13;;;28.50;67.60;;;;;;5060362;28;20051;-46
2022/06/23 11:42:45;;;;;;;8.32;0.70;;;28.60;64.40;;;;;;5059942;28;20072;-46
2022/06/23 11:45:30;;;;;;;1.88;0.60;;;28.60;67.10;;;;;;5059994;28;20414;-46
2022/06/23 11:48:09;;;;;;;2.45;0.85;;;28.70;66.00;;;;;;5060574;28;20710;-46
2022/06/23 11:50:42;;;;;;;4.60;0.88;;;28.80;65.90;;;;;;5060969;28;20116;-46
2022/06/23 11:53:45;;;;;;;57.25;4.55;;;28.90;65.30;;;;;;5059443;28;20052;-45
2022/06/23 11:56:33;;;;;;;26.38;2.72;;;28.90;64.70;;;;;;5061981;28;20119;-47
2022/06/23 11:59:20;;;;;;;2.47;0.60;;;29.00;65.50;;;;;;5061407;28;20106;-45
2022/06/23 12:01:46;;;;;;;1.52;0.70;;;29.00;62.40;;;;;;5062102;28;20045;-45
2022/06/23 12:04:47;;;;;;;2.90;0.70;;;29.00;66.20;;;;;;5067152;28;20394;-45
2022/06/23 12:07:13;;;;;;;2.28;0.70;;;29.00;63.80;;;;;;5071543;28;20197;-46
2022/06/23 12:10:16;;;;;;;4.85;0.93;;;29.10;63.10;;;;;;5071554;28;20674;-46
2022/06/23 12:12:46;;;;;;;2.28;0.93;;;29.20;63.70;;;;;;4989441;28;20050;-46
2022/06/23 12:15:15;;;;;;;1.23;0.68;;;29.20;60.60;;;;;;4978721;28;20467;-45
2022/06/23 12:17:43;;;;;;;5.18;0.82;;;29.20;62.50;;;;;;4970164;28;20205;-45
2022/06/23 12:20:33;;;;;;;4.63;0.98;;;29.20;64.10;;;;;;4961593;28;20047;-45
2022/06/23 12:23:37;;;;;;;5.47;0.80;;;29.20;60.80;;;;;;4972674;28;20039;-45
2022/06/23 12:26:17;;;;;;;343.67;25.60;;;29.20;63.20;;;;;;4978152;28;20186;-46
2022/06/23 12:29:07;;;;;;;1.80;0.80;;;29.30;61.30;;;;;;4989618;28;20034;-45
2022/06/23 12:31:39;;;;;;;2.28;0.45;;;29.30;60.40;;;;;;4989841;28;20424;-45
2022/06/23 12:34:18;;;;;;;2.97;0.80;;;29.40;61.90;;;;;;4988838;28;20050;-44
2022/06/23 12:37:09;;;;;;;2.45;0.68;;;29.40;61.80;;;;;;4989200;28;20046;-47
2022/06/23 12:39:58;;;;;;;5.03;0.68;;;29.50;59.10;;;;;;4986750;28;20050;-46
2022/06/23 12:42:38;;;;;;;6.65;0.90;;;29.50;58.60;;;;;;4989429;28;20459;-48
2022/06/23 12:45:41;;;;;;;1.63;0.60;;;29.50;61.10;;;;;;4988202;28;20077;-48
2022/06/23 12:48:25;;;;;;;2.58;0.50;;;29.60;60.30;;;;;;5050490;28;20106;-50
2022/06/23 12:51:15;;;;;;;3.25;0.70;;;29.60;59.00;;;;;;5051446;28;20044;-49
2022/06/23 12:53:59;;;;;;;4.95;0.82;;;29.70;59.40;;;;;;5049965;28;20049;-47
2022/06/23 12:56:46;;;;;;;3.25;0.65;;;29.70;58.30;;;;;;5049838;28;20045;-47
2022/06/23 12:59:26;;;;;;;2.72;0.60;;;29.70;59.30;;;;;;5050822;28;20037;-47
2022/06/23 13:02:11;;;;;;;158.35;10.52;;;29.70;56.10;;;;;;5050696;28;20048;-48
2022/06/23 13:04:49;;;;;;;387.98;32.95;;;29.70;57.60;;;;;;5050103;28;20048;-47
2022/06/23 13:07:26;;;;;;;2.88;0.63;;;29.60;58.00;;;;;;5062159;28;20071;-48
2022/06/23 13:09:57;;;;;;;96.63;6.47;;;29.70;59.70;;;;;;5055060;28;20082;-47
2022/06/23 13:12:43;;;;;;;4.95;0.70;;;29.80;58.30;;;;;;5053992;28;20485;-48
2022/06/23 13:15:14;;;;;;;35.65;2.40;;;29.80;60.20;;;;;;5058505;28;20033;-48
2022/06/23 13:17:54;;;;;;;4.65;0.90;;;29.80;59.10;;;;;;5051483;28;20068;-46
2022/06/23 13:20:42;;;;;;;4.25;0.52;;;29.80;59.60;;;;;;5054548;28;20051;-46
2022/06/23 13:23:18;;;;;;;4.25;0.60;;;29.80;59.10;;;;;;5058049;28;20040;-48
2022/06/23 13:26:22;;;;;;;4.07;1.13;;;29.90;58.50;;;;;;5065276;28;20032;-47
2022/06/23 13:29:14;;;;;;;6.18;0.77;;;29.90;59.40;;;;;;5064424;28;20060;-46
2022/06/23 13:31:58;;;;;;;2.55;1.00;;;29.80;57.80;;;;;;5049434;28;20413;-46
2022/06/23 13:34:28;;;;;;;3.25;0.60;;;29.70;58.00;;;;;;5061974;28;20584;-48
2022/06/23 13:37:09;;;;;;;2.60;0.60;;;29.70;58.00;;;;;;5061845;28;20032;-47
2022/06/23 13:40:03;;;;;;;0.90;0.60;;;29.70;57.30;;;;;;5050048;28;20043;-45
2022/06/23 13:42:35;;;;;;;1.88;0.73;;;29.60;59.30;;;;;;5050092;28;20051;-46
2022/06/23 13:45:19;;;;;;;4.00;0.60;;;29.70;58.80;;;;;;5052536;28;20052;-47
2022/06/23 13:48:08;;;;;;;4.00;0.90;;;29.70;57.60;;;;;;5055501;28;20474;-45
2022/06/23 13:50:56;;;;;;;2.03;1.02;;;29.70;58.00;;;;;;5060920;28;20047;-48
2022/06/23 13:53:28;;;;;;;3.20;0.70;;;29.70;57.80;;;;;;5053962;28;20039;-47
2022/06/23 13:56:04;;;;;;;1.60;0.80;;;29.80;59.90;;;;;;5064166;28;20036;-48
2022/06/23 13:58:34;;;;;;;;;;;29.90;60.70;;;;;;5064682;28;20040;-49
2022/06/23 14:01:12;;;;;;;4.25;0.80;;;29.90;59.00;;;;;;5064969;28;19924;-48